Time;durP1;ratioP1;P1;durP2;ratioP2;P2;SDS_P1;SDS_P2;PMS_P1;PMS_P2;Temp;Humidity;BMP_temperature;BMP_pressure;BME280_temperature;BME280_humidity;BME280_pressure;Samples;Min_cycle;Max_cycle;Signal;HPM_P1;HPM_P2
2022/07/17 00:00:10;;;;;;;1.15;0.72;;;;;;;17.09;64.68;99292.56;1661995;85;21015;-68
2022/07/17 00:02:37;;;;;;;0.62;0.50;;;;;;;17.13;64.70;99304.52;1662804;85;21158;-68
2022/07/17 00:05:05;;;;;;;1.02;0.60;;;;;;;17.14;64.78;99310.21;1662758;85;21485;-68
2022/07/17 00:07:32;;;;;;;0.50;0.50;;;;;;;17.13;65.01;99313.92;1662414;85;21027;-68
2022/07/17 00:09:58;;;;;;;1.02;0.50;;;;;;;17.12;64.89;99320.88;1661620;85;20970;-68
2022/07/17 00:12:27;;;;;;;0.70;0.70;;;;;;;17.12;64.83;99335.14;1656121;85;21082;-68
2022/07/17 00:14:54;;;;;;;0.88;0.82;;;;;;;17.06;64.68;99313.15;1663189;85;21163;-68
2022/07/17 00:17:21;;;;;;;0.72;0.50;;;;;;;17.00;64.86;99324.75;1663310;85;20919;-68
2022/07/17 00:19:48;;;;;;;1.40;0.78;;;;;;;16.96;65.12;99327.58;1663218;85;20958;-68
2022/07/17 00:22:15;;;;;;;0.70;0.70;;;;;;;16.93;65.33;99332.55;1663462;85;20971;-68
2022/07/17 00:24:41;;;;;;;0.80;0.80;;;;;;;16.85;65.58;99330.10;1662952;85;20910;-68
2022/07/17 00:27:08;;;;;;;0.60;0.60;;;;;;;16.78;65.84;99335.52;1662893;85;21891;-68
2022/07/17 00:29:35;;;;;;;1.05;0.70;;;;;;;16.73;66.13;99333.99;1662061;85;21624;-68
2022/07/17 00:32:01;;;;;;;0.68;0.65;;;;;;;16.69;66.10;99332.75;1662705;85;20915;-68
2022/07/17 00:34:28;;;;;;;1.12;0.75;;;;;;;16.67;66.25;99340.20;1662586;85;21074;-68
2022/07/17 00:36:56;;;;;;;1.47;0.88;;;;;;;16.63;66.38;99342.48;1662928;85;20953;-68
2022/07/17 00:39:23;;;;;;;2.22;0.75;;;;;;;16.60;66.58;99342.10;1662197;85;21171;-68
2022/07/17 00:41:50;;;;;;;0.93;0.62;;;;;;;16.53;66.71;99346.13;1662865;85;20914;-68
2022/07/17 00:44:16;;;;;;;0.80;0.75;;;;;;;16.48;66.91;99347.26;1667711;85;20993;-68
2022/07/17 00:46:43;;;;;;;0.68;0.50;;;;;;;16.49;67.14;99350.77;1662920;85;20886;-68
2022/07/17 00:49:10;;;;;;;0.50;0.50;;;;;;;16.49;67.14;99351.60;1662313;85;20918;-68
2022/07/17 00:51:36;;;;;;;0.57;0.57;;;;;;;16.47;67.19;99352.85;1662460;85;21266;-68
2022/07/17 00:54:03;;;;;;;0.72;0.50;;;;;;;16.41;67.35;99348.31;1636544;86;21005;-68
2022/07/17 00:56:30;;;;;;;0.53;0.47;;;;;;;16.34;67.70;99352.89;1660451;85;20976;-68
2022/07/17 00:58:57;;;;;;;0.90;0.70;;;;;;;16.26;67.95;99351.77;1648698;85;21573;-68
2022/07/17 01:01:23;;;;;;;0.80;0.57;;;;;;;16.20;68.24;99348.56;1646385;85;21435;-68
2022/07/17 01:03:49;;;;;;;1.47;0.82;;;;;;;16.11;68.57;99346.64;1613064;87;21371;-68
2022/07/17 01:06:16;;;;;;;0.70;0.65;;;;;;;16.03;68.98;99351.67;1627635;87;20953;-68
2022/07/17 01:08:42;;;;;;;1.22;0.78;;;;;;;15.98;69.30;99351.48;1619950;87;20971;-68
2022/07/17 01:11:09;;;;;;;1.85;0.85;;;;;;;15.91;69.46;99349.84;1612533;87;20929;-68
2022/07/17 01:13:36;;;;;;;1.25;0.95;;;;;;;15.83;69.80;99352.73;1597070;87;21109;-68
2022/07/17 01:16:04;;;;;;;0.80;0.80;;;;;;;15.78;70.12;99346.65;1612727;87;21120;-68
2022/07/17 01:18:30;;;;;;;1.00;0.75;;;;;;;15.71;70.27;99349.02;1615623;87;20991;-68
2022/07/17 01:21:05;;;;;;;1.07;0.98;;;;;;;15.65;70.50;99351.18;1614793;87;20961;-68
2022/07/17 01:23:32;;;;;;;1.47;0.88;;;;;;;15.60;70.75;99342.42;1616025;87;20983;-68
2022/07/17 01:25:59;;;;;;;0.95;0.75;;;;;;;15.51;70.89;99345.01;1613662;87;21079;-68
2022/07/17 01:28:26;;;;;;;0.88;0.80;;;;;;;15.48;71.20;99341.39;1613433;87;21177;-68
2022/07/17 01:30:52;;;;;;;2.27;0.80;;;;;;;15.48;71.34;99343.23;1599589;88;20934;-68
2022/07/17 01:33:19;;;;;;;0.98;0.98;;;;;;;15.44;71.36;99338.76;1616826;87;21488;-68
2022/07/17 01:35:46;;;;;;;1.10;1.00;;;;;;;15.37;71.43;99332.06;1616832;87;21526;-68
2022/07/17 01:38:12;;;;;;;0.90;0.80;;;;;;;15.28;71.69;99332.44;1616187;87;20995;-68
2022/07/17 01:40:39;;;;;;;1.55;0.62;;;;;;;15.22;71.90;99346.67;1616043;87;21167;-68
2022/07/17 01:43:07;;;;;;;2.25;0.80;;;;;;;15.16;72.16;99339.44;1612696;87;21001;-68
2022/07/17 01:45:35;;;;;;;0.57;0.50;;;;;;;15.09;72.30;99335.42;1613939;87;21037;-68
2022/07/17 01:48:03;;;;;;;0.98;0.65;;;;;;;15.01;72.45;99337.45;1631156;87;21022;-68
2022/07/17 01:50:29;;;;;;;2.22;0.78;;;;;;;14.94;72.67;99341.97;1612957;87;21083;-68
2022/07/17 01:52:55;;;;;;;1.07;0.75;;;;;;;14.86;72.82;99342.14;1625053;87;22273;-68
2022/07/17 01:55:22;;;;;;;0.95;0.68;;;;;;;14.79;73.12;99350.97;1615847;87;21447;-69
2022/07/17 01:57:50;;;;;;;1.87;0.70;;;;;;;14.73;73.33;99345.06;1616686;87;21545;-68
2022/07/17 02:00:17;;;;;;;1.40;0.57;;;;;;;14.67;73.54;99333.84;1611939;87;21548;-68
2022/07/17 02:02:44;;;;;;;0.88;0.82;;;;;;;14.62;73.63;99334.95;1613911;87;21024;-68
2022/07/17 02:05:11;;;;;;;0.90;0.78;;;;;;;14.56;73.73;99330.38;1617576;87;22208;-68
2022/07/17 02:07:39;;;;;;;0.72;0.70;;;;;;;14.52;73.91;99330.45;1612695;87;20945;-68
2022/07/17 02:10:09;;;;;;;1.40;0.70;;;;;;;14.49;73.99;99336.23;1612100;87;20957;-68
2022/07/17 02:12:36;;;;;;;1.30;1.10;;;;;;;14.47;74.14;99334.23;1611948;87;20984;-68
2022/07/17 02:15:05;;;;;;;0.98;0.82;;;;;;;14.46;74.17;99334.45;1612181;87;21022;-68
2022/07/17 02:17:32;;;;;;;1.17;0.90;;;;;;;14.42;74.22;99328.66;1608766;87;21960;-70
2022/07/17 02:19:59;;;;;;;1.57;1.00;;;;;;;14.37;74.13;99331.61;1614188;87;21013;-69
2022/07/17 02:22:25;;;;;;;1.47;1.37;;;;;;;14.31;74.23;99328.38;1615183;87;20980;-69
2022/07/17 02:24:52;;;;;;;2.70;1.52;;;;;;;14.26;74.41;99325.47;1625443;87;21025;-68
2022/07/17 02:27:18;;;;;;;1.45;1.35;;;;;;;14.24;74.55;99332.34;1616193;87;21016;-67
2022/07/17 02:29:45;;;;;;;1.45;1.35;;;;;;;14.19;74.70;99331.59;1626935;87;21770;-68
2022/07/17 02:32:11;;;;;;;0.95;0.82;;;;;;;14.13;74.86;99323.02;1627285;87;21428;-68
2022/07/17 02:34:39;;;;;;;1.07;0.90;;;;;;;14.08;75.09;99323.28;1611887;87;21451;-68
2022/07/17 02:37:05;;;;;;;0.93;0.80;;;;;;;14.10;75.28;99313.23;1614953;87;20988;-68
2022/07/17 02:39:32;;;;;;;1.00;0.75;;;;;;;14.11;75.33;99312.19;1616867;87;21037;-68
2022/07/17 02:42:00;;;;;;;1.07;0.70;;;;;;;14.13;75.38;99316.86;1631569;87;21123;-69
2022/07/17 02:44:26;;;;;;;0.85;0.60;;;;;;;14.14;75.35;99319.33;1618280;87;20974;-69
2022/07/17 02:46:53;;;;;;;1.12;0.90;;;;;;;14.14;75.26;99317.16;1612495;87;20862;-69
2022/07/17 02:49:20;;;;;;;1.50;1.40;;;;;;;14.13;75.30;99323.55;1613001;87;21029;-69
2022/07/17 02:51:47;;;;;;;1.10;0.90;;;;;;;14.12;75.40;99314.69;1621887;87;21008;-69
2022/07/17 02:54:13;;;;;;;1.77;1.30;;;;;;;14.15;75.43;99318.81;1618631;87;21117;-68
2022/07/17 02:56:40;;;;;;;1.05;1.00;;;;;;;14.19;75.33;99322.73;1611911;87;20949;-68
2022/07/17 02:59:06;;;;;;;0.82;0.82;;;;;;;14.21;75.29;99314.83;1617327;87;20974;-68
2022/07/17 03:01:33;;;;;;;0.95;0.85;;;;;;;14.26;75.20;99315.56;1615703;87;21036;-68
2022/07/17 03:03:59;;;;;;;1.20;0.95;;;;;;;14.32;75.10;99314.82;1632900;87;20891;-68
2022/07/17 03:06:26;;;;;;;1.10;0.80;;;;;;;14.41;74.96;99318.16;1605286;87;21292;-68
2022/07/17 03:08:54;;;;;;;2.58;0.88;;;;;;;14.49;74.85;99315.33;1618382;87;21953;-68
2022/07/17 03:11:20;;;;;;;1.25;0.93;;;;;;;14.57;74.57;99318.63;1629816;87;21457;-68
2022/07/17 03:13:47;;;;;;;2.65;1.57;;;;;;;14.69;74.30;99324.25;1619837;87;21556;-68
2022/07/17 03:16:14;;;;;;;3.85;1.80;;;;;;;14.84;73.88;99318.23;1609310;87;21431;-68
2022/07/17 03:18:41;;;;;;;3.20;2.12;;;;;;;15.03;73.35;99314.78;1616284;87;21305;-68
2022/07/17 03:21:07;;;;;;;3.83;2.22;;;;;;;15.23;72.69;99321.52;1613371;87;20929;-68
2022/07/17 03:23:34;;;;;;;3.85;2.35;;;;;;;15.44;72.01;99320.00;1613952;87;20980;-68
2022/07/17 03:26:00;;;;;;;1.95;1.45;;;;;;;15.66;71.23;99321.50;1619917;87;20913;-68
2022/07/17 03:28:27;;;;;;;2.10;1.45;;;;;;;15.79;70.42;99316.13;1624800;87;21092;-68
2022/07/17 03:30:54;;;;;;;1.65;1.40;;;;;;;15.85;69.78;99313.94;1621506;87;21494;-68
2022/07/17 03:33:21;;;;;;;2.08;1.00;;;;;;;15.88;69.29;99310.84;1612199;87;20902;-68
2022/07/17 03:35:47;;;;;;;1.05;0.75;;;;;;;15.88;68.85;99311.35;1612300;87;20933;-68
2022/07/17 03:38:14;;;;;;;1.12;0.90;;;;;;;15.85;68.50;99311.25;1611686;87;20973;-68
2022/07/17 03:40:41;;;;;;;2.12;1.02;;;;;;;15.78;68.25;99312.29;1611611;87;20961;-68
2022/07/17 03:43:07;;;;;;;0.98;0.88;;;;;;;15.72;68.21;99318.50;1612345;87;21413;-68
2022/07/17 03:45:34;;;;;;;2.22;1.22;;;;;;;15.67;68.35;99321.78;1613253;87;21024;-68
2022/07/17 03:48:00;;;;;;;1.98;1.40;;;;;;;15.62;68.40;99320.23;1613104;87;20965;-68
2022/07/17 03:50:27;;;;;;;3.55;2.00;;;;;;;15.57;68.53;99318.69;1614017;87;21017;-68
2022/07/17 03:52:53;;;;;;;2.22;1.60;;;;;;;15.52;68.63;99320.34;1619730;87;21093;-68
2022/07/17 03:55:20;;;;;;;4.33;1.80;;;;;;;15.44;68.74;99324.84;1612962;87;21238;-68
2022/07/17 03:57:46;;;;;;;2.35;1.55;;;;;;;15.40;68.92;99325.47;1622126;87;20932;-68
2022/07/17 04:00:14;;;;;;;2.40;1.40;;;;;;;15.37;69.12;99325.88;1664806;85;20934;-68
2022/07/17 04:02:42;;;;;;;1.95;1.30;;;;;;;15.33;69.29;99319.25;1636683;87;20912;-68
2022/07/17 04:05:10;;;;;;;2.25;1.22;;;;;;;15.29;69.49;99326.06;1662387;84;21004;-69
2022/07/17 04:07:38;;;;;;;6.03;1.20;;;;;;;15.24;69.74;99325.85;1627947;87;21179;-69
2022/07/17 04:10:07;;;;;;;1.40;0.90;;;;;;;15.22;70.00;99333.28;1662091;85;21012;-69
2022/07/17 04:12:33;;;;;;;3.37;1.05;;;;;;;15.22;70.19;99331.43;1662822;85;21059;-68
2022/07/17 04:15:00;;;;;;;1.22;1.10;;;;;;;15.23;70.37;99329.55;1662887;85;20934;-69
2022/07/17 04:17:27;;;;;;;1.42;1.15;;;;;;;15.24;70.44;99329.87;1663081;85;21073;-68
2022/07/17 04:19:53;;;;;;;1.15;0.75;;;;;;;15.28;70.49;99328.42;1662405;85;21266;-69
2022/07/17 04:22:20;;;;;;;1.32;1.00;;;;;;;15.29;70.42;99326.90;1662004;85;21037;-69
2022/07/17 04:24:46;;;;;;;0.90;0.78;;;;;;;15.28;70.29;99331.94;1662693;85;20966;-68
2022/07/17 04:27:14;;;;;;;1.37;0.85;;;;;;;15.25;70.32;99332.34;1662909;85;21586;-68
2022/07/17 04:29:40;;;;;;;1.00;0.85;;;;;;;15.23;70.49;99335.73;1662976;85;21575;-69
2022/07/17 04:32:07;;;;;;;1.20;0.65;;;;;;;15.24;70.76;99337.41;1662255;85;21919;-69
2022/07/17 04:34:34;;;;;;;1.15;0.85;;;;;;;15.25;70.77;99332.88;1662680;85;21450;-69
2022/07/17 04:37:01;;;;;;;1.07;0.90;;;;;;;15.25;70.92;99331.53;1662972;85;20937;-69
2022/07/17 04:39:28;;;;;;;1.57;1.17;;;;;;;15.24;71.15;99333.89;1662875;85;21021;-69
2022/07/17 04:41:55;;;;;;;0.65;0.65;;;;;;;15.26;71.19;99330.48;1662228;85;21063;-69
2022/07/17 04:44:22;;;;;;;0.90;0.80;;;;;;;15.29;71.40;99332.25;1662835;85;21266;-68
2022/07/17 04:46:48;;;;;;;2.27;0.85;;;;;;;15.25;71.54;99327.52;1662235;85;20996;-69
2022/07/17 04:49:15;;;;;;;2.12;1.00;;;;;;;15.21;71.67;99330.28;1662938;84;21011;-67
2022/07/17 04:51:42;;;;;;;2.08;0.90;;;;;;;15.21;71.78;99328.42;1662614;85;21007;-67
2022/07/17 04:54:08;;;;;;;3.20;1.10;;;;;;;15.20;71.72;99329.98;1667633;85;21536;-69
2022/07/17 04:56:35;;;;;;;1.77;1.25;;;;;;;15.16;71.84;99332.73;1630587;87;22082;-69
2022/07/17 04:59:01;;;;;;;4.50;1.30;;;;;;;15.12;72.20;99330.97;1668356;84;20904;-68
2022/07/17 05:01:29;;;;;;;1.10;1.00;;;;;;;15.14;72.52;99325.42;1670313;84;20993;-69
2022/07/17 05:03:55;;;;;;;1.02;0.90;;;;;;;15.14;72.65;99336.14;1663371;84;20970;-68
2022/07/17 05:06:22;;;;;;;1.47;1.37;;;;;;;15.17;72.70;99338.42;1670811;84;20965;-69
2022/07/17 05:08:50;;;;;;;1.77;1.00;;;;;;;15.16;72.62;99340.78;1670692;84;20864;-69
2022/07/17 05:11:16;;;;;;;0.90;0.90;;;;;;;15.13;72.87;99331.80;1669949;84;21010;-69
2022/07/17 05:13:45;;;;;;;2.15;1.05;;;;;;;15.13;73.11;99334.48;1670400;84;20970;-69
2022/07/17 05:16:12;;;;;;;0.85;0.80;;;;;;;15.15;73.04;99333.75;1670781;84;21475;-68
2022/07/17 05:18:39;;;;;;;0.80;0.80;;;;;;;15.19;73.17;99333.68;1670934;84;21535;-69
2022/07/17 05:21:05;;;;;;;1.00;0.88;;;;;;;15.24;72.96;99331.21;1670780;84;21274;-68
2022/07/17 05:23:32;;;;;;;4.33;0.80;;;;;;;15.29;73.05;99336.78;1664334;84;20949;-69
2022/07/17 05:25:59;;;;;;;0.90;0.80;;;;;;;15.40;73.17;99334.85;1668962;84;20991;-69
2022/07/17 05:28:25;;;;;;;1.37;1.07;;;;;;;15.46;72.54;99335.38;1677737;84;21076;-69
2022/07/17 05:30:52;;;;;;;3.20;1.60;;;;;;;15.54;72.43;99328.48;1670523;84;20955;-69
2022/07/17 05:33:18;;;;;;;2.00;1.20;;;;;;;15.65;72.31;99332.41;1670773;84;21166;-69
2022/07/17 05:35:45;;;;;;;2.12;1.98;;;;;;;15.77;71.72;99338.28;1669727;84;21007;-69
2022/07/17 05:38:13;;;;;;;1.42;1.10;;;;;;;15.90;71.14;99336.94;1670871;84;20918;-69
2022/07/17 05:40:42;;;;;;;1.45;1.10;;;;;;;15.99;70.38;99337.55;1670477;84;20930;-69
2022/07/17 05:43:09;;;;;;;1.40;1.17;;;;;;;16.06;69.95;99335.17;1670800;84;21590;-69
2022/07/17 05:45:35;;;;;;;1.30;0.90;;;;;;;16.17;69.50;99334.22;1670054;84;21782;-68
2022/07/17 05:48:03;;;;;;;1.20;0.85;;;;;;;16.28;69.06;99337.61;1670542;84;21430;-68
2022/07/17 05:50:30;;;;;;;0.72;0.60;;;;;;;16.45;68.49;99324.85;1670679;84;21076;-67
2022/07/17 05:52:57;;;;;;;2.27;0.75;;;;;;;17.31;67.35;99321.28;1670169;84;21073;-67
2022/07/17 05:55:23;;;;;;;1.15;0.50;;;;;;;18.98;64.46;99315.19;1670762;84;20964;-68
2022/07/17 05:57:50;;;;;;;0.60;0.53;;;;;;;21.06;58.39;99306.83;1670287;84;21248;-68
2022/07/17 06:00:16;;;;;;;1.00;0.57;;;;;;;22.19;52.96;99312.03;1670713;84;20967;-68
2022/07/17 06:02:43;;;;;;;0.80;0.78;;;;;;;22.59;50.27;99317.46;1670784;84;20925;-68
2022/07/17 06:05:10;;;;;;;0.60;0.60;;;;;;;22.70;48.97;99317.09;1670084;84;21078;-68
2022/07/17 06:07:37;;;;;;;3.70;0.80;;;;;;;23.07;47.53;99319.40;1670559;84;21027;-68
2022/07/17 06:10:06;;;;;;;0.53;0.47;;;;;;;24.05;45.42;99311.89;1670610;84;21163;-68
2022/07/17 06:12:33;;;;;;;0.80;0.42;;;;;;;25.85;41.21;99306.02;1670683;84;20946;-68
2022/07/17 06:14:59;;;;;;;1.47;0.53;;;;;;;27.22;37.84;99302.59;1670293;84;20957;-68
2022/07/17 06:17:28;;;;;;;0.60;0.40;;;;;;;27.62;35.72;99305.63;1668767;84;21245;-68
2022/07/17 06:19:54;;;;;;;0.70;0.30;;;;;;;28.34;34.49;99304.70;1670539;84;20915;-69
2022/07/17 06:22:21;;;;;;;0.40;0.40;;;;;;;28.76;32.64;99306.70;1670628;84;21161;-68
2022/07/17 06:24:49;;;;;;;1.35;1.25;;;;;;;27.84;32.60;99323.77;1670609;84;20921;-68
2022/07/17 06:27:17;;;;;;;0.70;0.70;;;;;;;27.07;33.55;99329.17;1669925;84;20925;-68
2022/07/17 06:29:46;;;;;;;1.15;0.55;;;;;;;26.19;34.30;99324.82;1670807;84;20902;-67
2022/07/17 06:32:13;;;;;;;0.90;0.60;;;;;;;25.25;35.73;99326.65;1670784;84;21043;-68
2022/07/17 06:34:39;;;;;;;1.07;0.80;;;;;;;24.45;37.28;99340.20;1670782;84;21169;-68
2022/07/17 06:37:06;;;;;;;1.40;0.78;;;;;;;23.74;38.30;99342.09;1669396;84;20992;-68
2022/07/17 06:39:33;;;;;;;0.82;0.50;;;;;;;24.56;37.89;99340.50;1684385;84;21555;-69
2022/07/17 06:41:59;;;;;;;1.27;0.60;;;;;;;25.69;36.45;99337.89;1688204;85;21005;-71
2022/07/17 06:44:26;;;;;;;0.50;0.23;;;;;;;27.22;33.96;99335.94;1688264;85;21120;-69
2022/07/17 06:46:53;;;;;;;0.53;0.40;;;;;;;28.39;31.10;99319.72;1681813;85;21411;-69
2022/07/17 06:49:21;;;;;;;1.52;1.20;;;;;;;29.39;29.34;99330.52;1679570;85;21030;-71
2022/07/17 06:51:48;;;;;;;1.17;0.88;;;;;;;30.66;28.31;99329.20;1687013;85;21035;-68
2022/07/17 06:54:15;;;;;;;0.40;0.40;;;;;;;31.85;26.70;99322.69;1678705;85;21026;-69
2022/07/17 06:56:43;;;;;;;2.95;0.55;;;;;;;33.03;25.56;99309.58;1674805;85;20977;-72
2022/07/17 06:59:10;;;;;;;0.40;0.30;;;;;;;34.18;23.61;99313.91;1662078;85;21199;-70
2022/07/17 07:01:37;;;;;;;0.80;0.53;;;;;;;34.06;22.97;99307.67;1661706;85;21061;-71
2022/07/17 07:04:04;;;;;;;0.78;0.45;;;;;;;34.62;22.48;99308.73;1662276;85;21068;-70
2022/07/17 07:06:31;;;;;;;1.12;0.50;;;;;;;35.25;21.11;99304.92;1662503;85;21084;-71
2022/07/17 07:08:58;;;;;;;1.60;0.40;;;;;;;35.11;21.04;99311.30;1661517;85;21375;-69
2022/07/17 07:11:25;;;;;;;0.30;0.30;;;;;;;33.54;21.64;99313.21;1668422;85;21128;-70
2022/07/17 07:13:51;;;;;;;1.60;0.50;;;;;;;31.81;23.19;99327.18;1630080;87;21085;-69
2022/07/17 07:16:20;;;;;;;1.72;0.57;;;;;;;30.22;25.24;99335.23;1629732;87;21071;-69
2022/07/17 07:18:47;;;;;;;0.42;0.37;;;;;;;28.85;26.97;99339.17;1629391;87;21026;-69
2022/07/17 07:21:14;;;;;;;0.72;0.55;;;;;;;27.93;28.33;99340.35;1629508;87;21038;-71
2022/07/17 07:23:41;;;;;;;0.55;0.50;;;;;;;28.96;28.02;99340.69;1660640;85;22772;-68
2022/07/17 07:26:08;;;;;;;0.50;0.28;;;;;;;30.63;26.29;99336.66;1662163;85;21537;-69
2022/07/17 07:28:36;;;;;;;2.72;1.20;;;;;;;32.24;24.50;99339.31;1662442;85;21551;-69
2022/07/17 07:31:03;;;;;;;0.50;0.50;;;;;;;32.40;23.26;99332.02;1661858;85;20996;-68
2022/07/17 07:33:33;;;;;;;1.00;0.30;;;;;;;31.34;24.02;99333.26;1665924;85;21025;-69
2022/07/17 07:36:04;;;;;;;0.65;0.40;;;;;;;30.32;24.81;99348.17;1676152;85;21872;-69
2022/07/17 07:38:33;;;;;;;0.62;0.40;;;;;;;29.89;25.47;99346.76;1633215;87;21067;-71
2022/07/17 07:41:01;;;;;;;3.10;0.60;;;;;;;29.79;25.94;99351.86;1667061;85;21108;-72
2022/07/17 07:43:27;;;;;;;0.65;0.47;;;;;;;29.48;26.35;99355.33;1664428;85;21065;-70
2022/07/17 07:45:54;;;;;;;1.65;0.47;;;;;;;29.48;26.68;99357.52;1675919;85;21030;-71
2022/07/17 07:48:20;;;;;;;0.93;0.50;;;;;;;30.62;26.12;99355.61;1668612;85;21586;-72
2022/07/17 07:50:47;;;;;;;2.37;0.50;;;;;;;32.29;24.66;99350.19;1667822;85;21022;-70
2022/07/17 07:53:14;;;;;;;0.40;0.40;;;;;;;33.93;22.84;99346.70;1632086;87;21095;-70
2022/07/17 07:55:41;;;;;;;0.90;0.50;;;;;;;35.01;20.70;99344.84;1666517;85;21499;-70
2022/07/17 07:58:10;;;;;;;0.85;0.50;;;;;;;35.28;19.79;99352.64;1638317;87;21050;-70
2022/07/17 08:00:39;;;;;;;0.65;0.25;;;;;;;34.10;20.72;99352.22;1628174;87;20978;-72
2022/07/17 08:03:06;;;;;;;0.85;0.55;;;;;;;34.37;20.66;99355.16;1662344;85;21008;-70
2022/07/17 08:05:33;;;;;;;1.05;0.37;;;;;;;34.27;20.65;99350.00;1662322;84;20927;-72
2022/07/17 08:08:00;;;;;;;0.60;0.30;;;;;;;34.81;20.26;99351.70;1662299;84;21081;-73
2022/07/17 08:10:28;;;;;;;1.07;0.30;;;;;;;35.59;19.41;99351.48;1661621;85;21159;-70
2022/07/17 08:12:55;;;;;;;0.60;0.40;;;;;;;35.20;19.88;99356.27;1662502;85;21277;-72
2022/07/17 08:15:23;;;;;;;0.42;0.40;;;;;;;34.53;19.69;99363.71;1659141;85;21090;-67
2022/07/17 08:17:51;;;;;;;0.80;0.57;;;;;;;34.41;19.97;99356.70;1667312;85;21018;-68
2022/07/17 08:20:20;;;;;;;0.50;0.40;;;;;;;34.14;20.17;99361.48;1665935;84;21641;-68
2022/07/17 08:22:47;;;;;;;1.57;0.65;;;;;;;34.34;20.53;99358.57;1674248;84;21061;-68
2022/07/17 08:25:13;;;;;;;1.75;1.65;;;;;;;34.91;20.58;99357.62;1670827;85;21099;-69
2022/07/17 08:27:42;;;;;;;5.30;4.90;;;;;;;34.29;21.04;99353.80;1669342;85;21031;-68
2022/07/17 08:30:11;;;;;;;3.77;1.72;;;;;;;33.02;21.67;99366.63;1671063;85;20928;-68
2022/07/17 08:32:38;;;;;;;1.75;0.70;;;;;;;31.54;22.95;99359.75;1674720;85;21551;-70
2022/07/17 08:35:06;;;;;;;3.17;0.82;;;;;;;30.18;24.45;99368.48;1643258;87;21015;-68
2022/07/17 08:37:45;;;;;;;0.60;0.60;;;;;;;30.56;24.78;99359.84;1666513;85;22179;-69
2022/07/17 08:40:18;;;;;;;1.95;0.60;;;;;;;31.56;23.71;99367.11;1643458;87;21610;-73
2022/07/17 08:42:44;;;;;;;1.17;0.40;;;;;;;32.86;22.57;99356.61;1676416;85;20982;-74
2022/07/17 08:45:12;;;;;;;0.82;0.55;;;;;;;33.74;21.00;99357.27;1676416;85;21026;-70
2022/07/17 08:47:39;;;;;;;2.20;0.40;;;;;;;33.65;20.76;99357.03;1643387;87;21024;-70
2022/07/17 08:50:07;;;;;;;3.10;0.60;;;;;;;34.22;20.44;99350.17;1643271;87;21161;-70
2022/07/17 08:52:34;;;;;;;1.92;0.50;;;;;;;34.72;20.14;99354.49;1612048;88;20956;-67
2022/07/17 08:55:00;;;;;;;1.02;0.50;;;;;;;35.66;18.86;99351.73;1641656;85;20875;-70
2022/07/17 08:57:27;;;;;;;3.85;0.50;;;;;;;36.30;18.48;99351.53;1643301;87;21025;-70
2022/07/17 08:59:54;;;;;;;0.45;0.42;;;;;;;36.77;17.88;99348.38;1677212;85;21025;-67
2022/07/17 09:02:20;;;;;;;0.70;0.37;;;;;;;36.49;17.84;99347.68;1667777;84;21153;-70
2022/07/17 09:04:54;;;;;;;2.30;0.45;;;;;;;35.67;18.49;99357.48;1667669;84;21021;-67
2022/07/17 09:07:20;;;;;;;1.92;0.50;;;;;;;34.29;19.67;99358.75;1664498;84;20953;-68
2022/07/17 09:09:53;;;;;;;0.50;0.37;;;;;;;32.73;21.24;99363.61;1667694;84;21093;-67
2022/07/17 09:12:29;;;;;;;0.37;0.37;;;;;;;31.35;22.78;99370.04;1667641;84;20958;-71
2022/07/17 09:14:55;;;;;;;0.40;0.40;;;;;;;29.85;24.27;99370.42;1667802;84;21196;-68
2022/07/17 09:17:24;;;;;;;1.00;0.53;;;;;;;28.60;25.67;99370.34;1675595;84;20935;-65
2022/07/17 09:19:51;;;;;;;2.15;1.02;;;;;;;28.78;25.92;99372.36;1667892;84;22302;-68
2022/07/17 09:22:24;;;;;;;2.12;1.92;;;;;;;30.51;24.73;99369.54;1668753;84;37814;-72
2022/07/17 09:24:56;;;;;;;1.87;1.77;;;;;;;32.38;22.45;99362.63;1667764;84;20946;-72
2022/07/17 09:27:29;;;;;;;0.93;0.72;;;;;;;32.15;22.29;99367.33;1664100;84;21847;-73
2022/07/17 09:30:05;;;;;;;0.57;0.57;;;;;;;30.98;23.26;99365.61;1661903;84;20993;-68
2022/07/17 09:32:35;;;;;;;0.60;0.40;;;;;;;29.79;24.75;99373.80;1667582;84;20903;-65
2022/07/17 09:35:04;;;;;;;0.80;0.70;;;;;;;28.70;26.17;99385.34;1667649;84;20886;-66
2022/07/17 09:37:32;;;;;;;1.17;1.05;;;;;;;27.60;27.70;99390.35;1670297;84;20898;-68
2022/07/17 09:39:59;;;;;;;2.17;0.70;;;;;;;27.18;28.75;99393.56;1678577;85;21226;-71
2022/07/17 09:42:30;;;;;;;2.33;0.30;;;;;;;27.08;29.38;99388.97;1678663;85;21590;-67
2022/07/17 09:45:09;;;;;;;0.93;0.40;;;;;;;26.73;30.27;99395.33;1678488;85;21546;-65
2022/07/17 09:47:38;;;;;;;0.62;0.30;;;;;;;26.36;30.67;99415.31;1678730;84;21021;-67
2022/07/17 09:50:08;;;;;;;1.22;0.40;;;;;;;26.07;31.33;99412.86;1678568;84;21446;-68
2022/07/17 09:52:37;;;;;;;0.37;0.37;;;;;;;25.71;31.87;99418.80;1673984;85;21167;-67
2022/07/17 09:55:05;;;;;;;0.30;0.20;;;;;;;25.47;32.58;99413.03;1676084;85;20866;-67
2022/07/17 09:57:34;;;;;;;0.57;0.20;;;;;;;25.18;32.66;99421.36;1678890;85;21033;-68
2022/07/17 10:00:05;;;;;;;0.60;0.40;;;;;;;24.78;33.61;99417.05;1677277;84;21080;-69
2022/07/17 10:02:34;;;;;;;2.45;0.28;;;;;;;24.45;34.84;99416.32;1666527;84;21124;-72
2022/07/17 10:05:01;;;;;;;1.37;1.27;;;;;;;24.25;35.45;99425.67;1667109;84;21101;-68
2022/07/17 10:07:29;;;;;;;2.50;0.50;;;;;;;24.10;35.78;99422.01;1667235;84;20965;-67
2022/07/17 10:09:55;;;;;;;0.50;0.37;;;;;;;24.06;36.34;99419.52;1667070;84;21069;-67
2022/07/17 10:12:22;;;;;;;2.25;0.25;;;;;;;24.00;36.54;99413.74;1667059;84;21515;-69
2022/07/17 10:14:50;;;;;;;0.40;0.40;;;;;;;23.76;36.45;99414.08;1667170;84;21005;-67
2022/07/17 10:17:20;;;;;;;0.68;0.30;;;;;;;23.53;36.72;99419.00;1664229;84;21167;-68
2022/07/17 10:19:53;;;;;;;0.47;0.30;;;;;;;23.46;36.76;99421.09;1666940;84;20969;-68
2022/07/17 10:22:20;;;;;;;0.78;0.20;;;;;;;23.52;36.94;99422.77;1662614;84;21515;-66
2022/07/17 10:24:56;;;;;;;0.50;0.30;;;;;;;23.62;37.15;99421.55;1666958;84;21569;-68
2022/07/17 10:27:25;;;;;;;3.40;0.30;;;;;;;23.50;42.54;99443.94;1630000;86;21096;-67
2022/07/17 10:30:10;;;;;;;0.57;0.30;;;;;;;23.09;43.99;99458.89;1635161;86;21772;-68
2022/07/17 10:32:37;;;;;;;0.80;0.30;;;;;;;22.81;44.29;99456.34;1632966;86;21003;-68
2022/07/17 10:35:09;;;;;;;1.47;0.35;;;;;;;22.65;44.73;99452.59;1634184;87;20978;-68
2022/07/17 10:37:40;;;;;;;0.82;0.23;;;;;;;22.59;45.41;99448.12;1644315;87;21060;-68
2022/07/17 10:40:29;;;;;;;0.20;0.20;;;;;;;22.59;46.10;99439.98;1645594;87;21606;-68
2022/07/17 10:43:04;;;;;;;0.30;0.30;;;;;;;22.61;46.48;99448.69;1645802;86;21566;-68
2022/07/17 10:45:39;;;;;;;0.78;0.17;;;;;;;22.46;46.13;99443.04;1635993;87;20990;-67
2022/07/17 10:48:08;;;;;;;1.87;0.80;;;;;;;22.21;46.55;99442.65;1644514;87;20957;-68
2022/07/17 10:50:41;;;;;;;2.20;2.00;;;;;;;22.06;46.86;99446.73;1635537;87;21077;-67
2022/07/17 10:53:29;;;;;;;0.80;0.55;;;;;;;22.07;47.17;99445.68;1640424;87;20957;-69
2022/07/17 10:56:01;;;;;;;1.57;0.93;;;;;;;22.13;47.11;99447.39;1618088;87;21106;-69
2022/07/17 10:58:37;;;;;;;0.88;0.53;;;;;;;22.13;46.35;99441.17;1630119;87;20971;-68
2022/07/17 11:01:13;;;;;;;1.00;0.30;;;;;;;22.29;45.84;99436.82;1626577;87;21470;-68
2022/07/17 11:03:52;;;;;;;0.75;0.30;;;;;;;22.39;44.85;99435.63;1618401;87;21029;-70
2022/07/17 11:06:33;;;;;;;0.20;0.20;;;;;;;22.57;44.28;99444.84;1649871;85;21107;-68
2022/07/17 11:09:03;;;;;;;0.30;0.30;;;;;;;22.58;43.59;99435.63;1616762;87;21189;-69
2022/07/17 11:11:50;;;;;;;0.40;0.40;;;;;;;22.56;44.06;99438.59;1650998;85;21005;-69
2022/07/17 11:14:26;;;;;;;0.70;0.70;;;;;;;22.49;43.88;99439.31;1651611;85;21407;-68
2022/07/17 11:16:55;;;;;;;2.85;0.53;;;;;;;22.42;43.76;99442.70;1619925;87;20953;-70
2022/07/17 11:19:31;;;;;;;3.30;3.00;;;;;;;22.35;44.08;99439.88;1657797;85;21044;-69
2022/07/17 11:22:02;;;;;;;;;;;;;;;22.25;44.25;99445.14;1661475;85;21204;-69
2022/07/17 11:24:42;;;;;;;1.90;1.80;;;;;;;22.22;44.80;99449.16;1619987;87;20448;-67
2022/07/17 11:27:13;;;;;;;0.80;0.80;;;;;;;22.26;44.60;99446.80;1658369;85;20957;-68
2022/07/17 11:29:40;;;;;;;0.60;0.50;;;;;;;22.19;44.19;99456.98;1675985;85;21017;-68
2022/07/17 11:32:07;;;;;;;0.40;0.40;;;;;;;22.05;44.21;99457.30;1670451;85;21073;-68
2022/07/17 11:34:34;;;;;;;1.70;0.90;;;;;;;21.86;44.41;99466.70;1635634;87;21171;-66
2022/07/17 11:37:05;;;;;;;2.22;0.80;;;;;;;21.75;44.90;99468.89;1635448;87;20927;-68